Time;durP1;ratioP1;P1;durP2;ratioP2;P2;SDS_P1;SDS_P2;PMS_P1;PMS_P2;Temp;Humidity;BMP_temperature;BMP_pressure;BME280_temperature;BME280_humidity;BME280_pressure;Samples;Min_cycle;Max_cycle;Signal;HPM_P1;HPM_P2
2022/04/04 00:00:21;;;;;;;23.88;13.20;;;2.60;99.90;;;;;;5027350;28;20049;-74
2022/04/04 00:02:46;;;;;;;23.08;14.77;;;2.60;99.90;;;;;;5011957;28;20026;-74
2022/04/04 00:05:12;;;;;;;21.10;13.80;;;2.60;99.90;;;;;;5011640;28;20809;-76
2022/04/04 00:07:46;;;;;;;26.23;14.60;;;2.60;99.90;;;;;;5027273;28;20081;-77
2022/04/04 00:10:15;;;;;;;22.13;12.75;;;2.60;99.90;;;;;;4994751;28;20026;-77
2022/04/04 00:12:41;;;;;;;22.45;14.38;;;2.70;99.90;;;;;;4994502;28;20022;-76
2022/04/04 00:15:07;;;;;;;24.25;14.35;;;2.60;99.90;;;;;;5010660;28;20048;-75
2022/04/04 00:17:33;;;;;;;22.95;14.30;;;2.60;99.90;;;;;;5010747;28;20033;-78
2022/04/04 00:20:00;;;;;;;24.02;15.85;;;2.60;99.90;;;;;;5012175;28;20061;-79
2022/04/04 00:22:26;;;;;;;24.05;14.82;;;2.60;99.90;;;;;;5012111;28;20050;-77
2022/04/04 00:24:55;;;;;;;26.08;15.77;;;2.50;99.90;;;;;;5011583;28;20030;-77
2022/04/04 00:27:21;;;;;;;25.45;15.50;;;2.60;99.90;;;;;;4994472;28;20026;-76
2022/04/04 00:29:47;;;;;;;30.58;18.95;;;2.50;99.90;;;;;;5011878;28;20077;-76
2022/04/04 00:32:13;;;;;;;33.63;20.95;;;2.50;99.90;;;;;;5010292;28;20037;-77
2022/04/04 00:34:39;;;;;;;32.97;20.67;;;2.50;99.90;;;;;;5026645;28;20447;-76
2022/04/04 00:37:05;;;;;;;31.17;19.10;;;2.50;99.90;;;;;;5012289;28;20041;-76
2022/04/04 00:39:31;;;;;;;32.47;20.27;;;2.30;99.90;;;;;;5027439;28;20022;-76
2022/04/04 00:41:57;;;;;;;30.88;21.33;;;2.30;99.90;;;;;;5011871;28;20056;-75
2022/04/04 00:44:25;;;;;;;30.45;19.15;;;2.30;99.90;;;;;;5010443;28;20042;-77
2022/04/04 00:46:51;;;;;;;26.33;19.52;;;2.30;99.90;;;;;;5012548;28;20104;-76
2022/04/04 00:49:17;;;;;;;27.27;19.15;;;2.30;99.90;;;;;;5015285;28;20076;-76
2022/04/04 00:51:45;;;;;;;35.05;20.35;;;2.20;99.90;;;;;;5015393;28;20093;-75
2022/04/04 00:54:13;;;;;;;28.88;19.25;;;2.20;99.90;;;;;;5014316;28;20403;-75
2022/04/04 00:56:39;;;;;;;31.98;20.63;;;2.20;99.90;;;;;;5015117;28;20108;-75
2022/04/04 00:59:07;;;;;;;30.40;20.70;;;2.20;99.90;;;;;;5030498;28;20104;-75
2022/04/04 01:01:35;;;;;;;31.77;20.23;;;2.20;99.90;;;;;;5015244;28;20022;-75
2022/04/04 01:04:01;;;;;;;37.40;22.10;;;2.20;99.90;;;;;;5015464;28;20076;-76
2022/04/04 01:06:27;;;;;;;29.58;19.77;;;2.20;99.90;;;;;;5015265;28;20167;-76
2022/04/04 01:08:53;;;;;;;28.63;18.25;;;2.10;99.90;;;;;;5015016;28;20064;-77
2022/04/04 01:11:20;;;;;;;29.08;17.58;;;2.00;99.90;;;;;;5015069;28;20365;-77
2022/04/04 01:13:47;;;;;;;27.67;17.65;;;1.90;99.90;;;;;;5014682;28;20033;-76
2022/04/04 01:16:13;;;;;;;29.13;17.92;;;1.90;99.90;;;;;;5014897;28;20042;-75
2022/04/04 01:18:40;;;;;;;28.95;17.92;;;1.80;99.90;;;;;;5013739;28;20026;-77
2022/04/04 01:21:06;;;;;;;32.42;17.83;;;1.80;99.90;;;;;;4997381;28;20383;-76
2022/04/04 01:23:42;;;;;;;29.08;17.75;;;1.80;99.90;;;;;;5014568;28;20029;-76
2022/04/04 01:26:17;;;;;;;26.63;16.00;;;1.90;99.90;;;;;;5014509;28;20038;-76
2022/04/04 01:28:44;;;;;;;27.88;17.70;;;1.80;99.90;;;;;;5013636;28;20453;-75
2022/04/04 01:31:10;;;;;;;30.08;18.17;;;1.70;99.90;;;;;;5014668;28;20536;-76
2022/04/04 01:33:37;;;;;;;30.17;17.73;;;1.80;99.90;;;;;;5014313;28;20692;-74
2022/04/04 01:36:03;;;;;;;26.85;17.23;;;1.80;99.90;;;;;;5013109;28;20050;-75
2022/04/04 01:38:30;;;;;;;25.77;17.15;;;1.70;99.90;;;;;;5013572;28;20065;-75
2022/04/04 01:40:56;;;;;;;27.58;16.73;;;1.80;99.90;;;;;;5013020;28;20030;-74
2022/04/04 01:43:22;;;;;;;28.35;16.85;;;1.80;99.90;;;;;;5013268;28;20076;-76
2022/04/04 01:48:37;;;;;;;26.35;17.02;;;1.80;99.90;;;;;;5014499;28;20100;-75
2022/04/04 01:51:05;;;;;;;29.88;17.02;;;1.80;99.90;;;;;;5014380;28;20057;-76
2022/04/04 01:53:34;;;;;;;26.30;16.70;;;1.80;99.90;;;;;;5029725;28;20615;-75
2022/04/04 01:56:03;;;;;;;26.80;16.10;;;1.70;99.90;;;;;;5013702;28;20444;-75
2022/04/04 01:58:30;;;;;;;28.30;18.13;;;1.70;99.90;;;;;;5013650;28;20034;-77
2022/04/04 02:01:01;;;;;;;27.73;18.55;;;1.70;99.90;;;;;;5029408;28;20037;-75
2022/04/04 02:03:29;;;;;;;27.15;17.02;;;1.70;99.90;;;;;;4997126;28;20026;-76
2022/04/04 02:05:56;;;;;;;29.90;17.58;;;1.70;99.90;;;;;;5014405;28;20053;-76
2022/04/04 02:08:22;;;;;;;30.48;18.42;;;1.70;99.90;;;;;;5012490;28;20026;-75
2022/04/04 02:10:48;;;;;;;23.08;16.10;;;1.80;99.90;;;;;;5012750;28;20064;-77
2022/04/04 02:13:14;;;;;;;23.92;16.48;;;1.80;99.90;;;;;;5012453;28;20057;-76
2022/04/04 02:15:40;;;;;;;23.95;16.50;;;1.90;99.90;;;;;;5013911;28;20033;-76
2022/04/04 02:18:06;;;;;;;27.13;17.30;;;1.90;99.90;;;;;;5013720;28;20109;-76
2022/04/04 02:20:32;;;;;;;26.00;17.00;;;1.80;99.90;;;;;;5013730;28;20100;-76
2022/04/04 02:23:00;;;;;;;23.15;15.45;;;1.80;99.90;;;;;;5012308;28;20510;-76
2022/04/04 02:25:27;;;;;;;33.00;20.27;;;1.80;99.90;;;;;;5013216;28;20052;-76
2022/04/04 02:27:53;;;;;;;35.13;21.25;;;1.70;99.90;;;;;;5012189;28;20033;-76
2022/04/04 02:30:19;;;;;;;31.65;21.33;;;1.60;99.90;;;;;;5013147;28;20029;-75
2022/04/04 02:32:46;;;;;;;27.77;17.45;;;1.60;99.90;;;;;;5013672;28;20523;-75
2022/04/04 02:35:12;;;;;;;27.92;18.25;;;1.60;99.90;;;;;;5013440;28;20091;-76
2022/04/04 02:37:38;;;;;;;33.38;18.85;;;1.60;99.90;;;;;;5013788;28;20030;-76
2022/04/04 02:40:05;;;;;;;28.40;19.08;;;1.60;99.90;;;;;;5013227;28;20022;-75
2022/04/04 02:42:32;;;;;;;26.65;17.92;;;1.60;99.90;;;;;;5013205;28;20021;-76
2022/04/04 02:44:58;;;;;;;27.30;16.63;;;1.50;99.90;;;;;;5012885;28;20072;-74
2022/04/04 02:47:25;;;;;;;25.20;15.85;;;1.50;99.90;;;;;;5013213;28;20104;-75
2022/04/04 02:49:51;;;;;;;25.88;16.67;;;1.50;99.90;;;;;;5013222;28;20061;-76
2022/04/04 02:52:17;;;;;;;24.75;15.85;;;1.50;99.90;;;;;;5012343;28;20492;-75
2022/04/04 02:54:43;;;;;;;29.73;17.92;;;1.50;99.90;;;;;;5013030;28;20018;-75
2022/04/04 02:57:09;;;;;;;30.88;18.10;;;1.50;99.90;;;;;;5012803;28;20037;-73
2022/04/04 02:59:35;;;;;;;31.42;18.95;;;1.50;99.90;;;;;;5012700;28;20097;-75
2022/04/04 03:02:01;;;;;;;33.13;19.85;;;1.50;99.90;;;;;;5012031;28;20029;-76
2022/04/04 03:04:27;;;;;;;32.95;18.20;;;1.40;99.90;;;;;;5012981;28;20026;-75
2022/04/04 03:06:53;;;;;;;27.98;18.42;;;1.40;99.90;;;;;;5013120;28;20064;-74
2022/04/04 03:09:19;;;;;;;29.48;18.17;;;1.30;99.90;;;;;;5011708;28;20033;-74
2022/04/04 03:11:45;;;;;;;33.10;16.92;;;1.30;99.90;;;;;;5012844;28;20514;-75
2022/04/04 03:14:11;;;;;;;33.25;16.10;;;1.20;99.90;;;;;;5027558;28;20080;-75
2022/04/04 03:16:37;;;;;;;29.40;18.63;;;1.20;99.90;;;;;;5011335;28;20410;-75
2022/04/04 03:19:03;;;;;;;25.88;16.98;;;1.20;99.90;;;;;;5012263;28;20057;-75
2022/04/04 03:21:29;;;;;;;26.88;17.75;;;1.20;99.90;;;;;;5011243;28;20372;-76
2022/04/04 03:23:55;;;;;;;24.30;16.98;;;1.30;99.90;;;;;;5012594;28;20029;-75
2022/04/04 03:26:21;;;;;;;29.95;19.85;;;1.30;99.90;;;;;;5011089;28;20034;-75
2022/04/04 03:28:47;;;;;;;33.35;21.58;;;1.30;99.90;;;;;;5027297;28;20026;-76
2022/04/04 03:31:14;;;;;;;33.47;20.90;;;1.20;99.90;;;;;;5011765;28;20080;-75
2022/04/04 03:33:40;;;;;;;39.03;22.40;;;1.20;99.90;;;;;;5012572;28;20101;-75
2022/04/04 03:36:09;;;;;;;31.40;20.70;;;1.20;99.90;;;;;;5011118;28;20141;-75
2022/04/04 03:38:35;;;;;;;30.23;20.73;;;1.20;99.90;;;;;;5027549;28;20018;-75
2022/04/04 03:41:03;;;;;;;33.20;21.35;;;1.20;99.90;;;;;;5011126;28;20060;-75
2022/04/04 03:43:29;;;;;;;39.95;21.13;;;1.20;99.90;;;;;;5027144;28;20022;-75
2022/04/04 03:45:55;;;;;;;38.50;21.88;;;1.10;99.90;;;;;;5027356;28;20502;-75
2022/04/04 03:48:21;;;;;;;32.72;20.38;;;1.20;99.90;;;;;;5012059;28;20046;-75
2022/04/04 03:50:51;;;;;;;31.52;21.27;;;1.10;99.90;;;;;;5011064;28;20056;-75
2022/04/04 03:53:17;;;;;;;35.40;22.45;;;1.00;99.90;;;;;;5012338;28;20022;-75
2022/04/04 03:55:43;;;;;;;33.40;21.42;;;1.10;99.90;;;;;;5012317;28;20038;-74
2022/04/04 03:58:10;;;;;;;34.50;21.20;;;1.10;99.90;;;;;;5010986;28;20029;-74
2022/04/04 04:00:39;;;;;;;36.13;22.48;;;1.00;99.90;;;;;;5011899;28;20030;-75
2022/04/04 04:03:09;;;;;;;39.30;23.40;;;1.00;99.90;;;;;;5012015;28;20029;-76
2022/04/04 04:05:36;;;;;;;32.55;20.98;;;1.00;99.90;;;;;;4994612;28;20026;-75
2022/04/04 04:08:02;;;;;;;34.65;21.17;;;1.00;99.90;;;;;;5012021;28;20033;-77
2022/04/04 04:10:28;;;;;;;39.33;23.45;;;1.10;99.90;;;;;;5027154;28;20651;-77
2022/04/04 04:12:55;;;;;;;35.28;21.35;;;1.00;99.90;;;;;;5026403;28;20018;-77
2022/04/04 04:15:23;;;;;;;38.55;23.23;;;1.00;99.90;;;;;;5027091;28;20070;-76
2022/04/04 04:17:52;;;;;;;37.42;23.92;;;1.00;99.90;;;;;;5011009;28;20030;-76
2022/04/04 04:20:19;;;;;;;44.83;24.40;;;1.00;99.90;;;;;;5011818;28;20053;-76
2022/04/04 04:23:07;;;;;;;48.10;24.10;;;1.00;99.90;;;;;;5016272;28;20029;-74
2022/04/04 04:25:35;;;;;;;49.05;23.48;;;1.00;99.90;;;;;;5015583;28;20107;-74
2022/04/04 04:28:03;;;;;;;39.53;23.55;;;1.00;99.90;;;;;;5030562;28;20026;-75
2022/04/04 04:30:30;;;;;;;39.40;24.55;;;1.10;99.90;;;;;;5015793;28;20515;-74
2022/04/04 04:32:57;;;;;;;37.42;23.65;;;1.40;99.90;;;;;;5014864;28;20107;-75
2022/04/04 04:35:24;;;;;;;39.67;23.02;;;1.80;99.90;;;;;;5022993;28;20408;-74
2022/04/04 04:37:51;;;;;;;34.20;23.60;;;2.30;99.90;;;;;;4996648;28;20030;-74
2022/04/04 04:40:17;;;;;;;34.65;22.52;;;2.80;99.90;;;;;;4994883;28;20081;-75
2022/04/04 04:42:45;;;;;;;44.50;23.65;;;3.30;99.90;;;;;;5001705;28;20030;-74
2022/04/04 04:45:12;;;;;;;41.03;22.80;;;3.70;99.90;;;;;;5015012;28;20072;-75
2022/04/04 04:47:38;;;;;;;43.85;24.33;;;4.20;99.90;;;;;;4997769;28;20053;-73
2022/04/04 04:50:08;;;;;;;36.35;24.50;;;4.60;99.90;;;;;;5015047;28;20931;-76
2022/04/04 04:52:36;;;;;;;36.17;22.13;;;5.00;99.90;;;;;;4997986;28;20030;-76
2022/04/04 04:55:04;;;;;;;40.95;24.75;;;5.60;99.90;;;;;;4997566;28;20030;-76
2022/04/04 04:57:30;;;;;;;39.47;22.80;;;6.10;99.90;;;;;;5015062;28;20033;-75
2022/04/04 04:59:56;;;;;;;34.08;22.13;;;6.40;98.80;;;;;;5014893;28;20033;-76
2022/04/04 05:02:25;;;;;;;33.63;22.25;;;6.70;96.30;;;;;;5014904;28;20475;-75
2022/04/04 05:04:51;;;;;;;35.15;21.88;;;6.90;94.50;;;;;;5013445;28;20037;-75
2022/04/04 05:07:18;;;;;;;37.13;22.15;;;7.30;93.80;;;;;;5015029;28;20022;-75
2022/04/04 05:09:44;;;;;;;31.65;22.05;;;7.70;91.60;;;;;;5015012;28;20072;-76
2022/04/04 05:12:11;;;;;;;45.70;28.30;;;7.80;91.10;;;;;;5013953;28;20384;-75
2022/04/04 05:14:40;;;;;;;37.97;23.40;;;8.00;88.70;;;;;;5015005;28;20083;-74
2022/04/04 05:17:06;;;;;;;37.38;26.38;;;8.50;88.00;;;;;;5014447;28;20045;-72
2022/04/04 05:19:32;;;;;;;45.45;25.27;;;8.90;85.40;;;;;;5014654;28;20092;-75
2022/04/04 05:21:58;;;;;;;38.88;26.63;;;9.20;83.40;;;;;;5014712;28;20480;-75
2022/04/04 05:24:24;;;;;;;46.80;29.42;;;9.10;80.90;;;;;;5014502;28;20546;-75
2022/04/04 05:26:51;;;;;;;51.25;32.78;;;9.20;82.10;;;;;;4996604;28;20058;-71
2022/04/04 05:29:17;;;;;;;55.58;32.08;;;9.10;81.50;;;;;;5030452;28;20040;-75
2022/04/04 05:31:47;;;;;;;58.00;32.63;;;8.10;81.50;;;;;;5013769;28;20109;-75
2022/04/04 05:34:13;;;;;;;50.00;30.30;;;7.40;85.70;;;;;;5014552;28;20034;-75
2022/04/04 05:36:39;;;;;;;47.53;28.50;;;6.90;90.10;;;;;;5013909;28;20060;-71
2022/04/04 05:39:06;;;;;;;52.30;28.70;;;6.50;94.10;;;;;;5012789;28;20125;-74
2022/04/04 05:41:36;;;;;;;50.40;29.77;;;6.40;94.70;;;;;;4996589;28;20030;-76
2022/04/04 05:44:03;;;;;;;43.25;27.38;;;6.30;96.40;;;;;;5013782;28;20429;-75
2022/04/04 05:46:30;;;;;;;44.85;28.42;;;6.00;97.90;;;;;;5013761;28;20100;-75
2022/04/04 05:48:56;;;;;;;43.58;26.25;;;5.80;98.70;;;;;;5012962;28;20121;-75
2022/04/04 05:51:22;;;;;;;41.47;24.73;;;5.50;99.90;;;;;;5013789;28;20485;-74
2022/04/04 05:53:48;;;;;;;38.10;25.80;;;5.60;99.90;;;;;;5014407;28;20034;-74
2022/04/04 05:56:14;;;;;;;37.50;24.77;;;5.80;99.90;;;;;;5014137;28;20049;-70
2022/04/04 05:58:43;;;;;;;37.42;22.90;;;6.00;97.70;;;;;;4996194;28;20026;-75
2022/04/04 06:01:09;;;;;;;44.38;24.67;;;5.90;98.80;;;;;;5028793;28;20396;-75
2022/04/04 06:03:35;;;;;;;38.92;25.35;;;5.90;99.90;;;;;;4996098;28;20029;-75
2022/04/04 06:06:02;;;;;;;45.75;27.60;;;6.10;98.70;;;;;;5013712;28;20029;-74
2022/04/04 06:08:29;;;;;;;42.80;26.17;;;6.20;97.50;;;;;;5014096;28;20026;-75
2022/04/04 06:10:58;;;;;;;36.85;22.88;;;6.20;99.90;;;;;;4996221;28;20022;-76
2022/04/04 06:13:24;;;;;;;41.72;24.77;;;6.00;97.20;;;;;;5012594;28;20045;-74
2022/04/04 06:15:58;;;;;;;35.30;23.00;;;6.00;98.30;;;;;;5010100;28;20034;-76
2022/04/04 06:18:24;;;;;;;33.65;21.40;;;6.20;97.60;;;;;;5017590;28;20034;-75
2022/04/04 06:20:54;;;;;;;37.08;22.88;;;6.20;99.60;;;;;;4993568;28;20034;-75
2022/04/04 06:23:20;;;;;;;47.08;24.67;;;6.20;98.50;;;;;;4992608;28;20076;-74
2022/04/04 06:26:06;;;;;;;37.17;23.67;;;6.30;97.70;;;;;;4993366;28;20030;-74
2022/04/04 06:28:33;;;;;;;34.83;22.00;;;6.30;99.90;;;;;;5008017;28;20026;-72
2022/04/04 06:30:59;;;;;;;34.88;20.73;;;6.40;98.20;;;;;;4993050;28;20022;-74
2022/04/04 06:33:26;;;;;;;32.70;21.70;;;6.60;96.90;;;;;;5008427;28;20462;-76
2022/04/04 06:35:52;;;;;;;27.25;18.02;;;6.40;99.90;;;;;;4993384;28;20076;-77
2022/04/04 06:38:21;;;;;;;27.10;19.33;;;6.50;97.40;;;;;;4993036;28;20098;-70
2022/04/04 06:40:49;;;;;;;25.38;15.60;;;6.80;97.80;;;;;;5007588;28;20134;-76
2022/04/04 06:43:17;;;;;;;23.05;14.52;;;6.70;97.50;;;;;;5012208;28;20072;-76
2022/04/04 06:45:44;;;;;;;21.77;14.30;;;6.60;96.40;;;;;;5011994;28;20036;-75
2022/04/04 06:48:14;;;;;;;24.00;13.52;;;6.80;95.20;;;;;;5012225;28;20077;-74
2022/04/04 06:50:40;;;;;;;26.05;15.52;;;7.00;95.40;;;;;;5011085;28;20034;-76
2022/04/04 06:53:14;;;;;;;21.48;13.10;;;7.20;97.50;;;;;;5012527;28;20026;-75
2022/04/04 06:55:40;;;;;;;21.10;12.75;;;6.90;91.60;;;;;;5012353;28;20455;-75
2022/04/04 06:58:06;;;;;;;22.05;13.70;;;6.80;96.80;;;;;;5012529;28;20114;-75
2022/04/04 07:00:39;;;;;;;24.05;13.18;;;6.90;92.50;;;;;;5011886;28;20026;-76
2022/04/04 07:03:15;;;;;;;23.70;15.35;;;7.30;93.20;;;;;;4996074;28;20126;-75
2022/04/04 07:05:41;;;;;;;22.25;14.10;;;7.40;93.90;;;;;;5010237;28;20133;-74
2022/04/04 07:08:08;;;;;;;23.85;15.65;;;7.30;91.70;;;;;;5011985;28;20622;-77
2022/04/04 07:10:34;;;;;;;22.25;13.63;;;7.50;97.70;;;;;;5011656;28;20040;-69
2022/04/04 07:13:00;;;;;;;23.92;14.60;;;7.70;92.20;;;;;;5011196;28;20022;-78
2022/04/04 07:15:29;;;;;;;26.33;14.50;;;8.00;95.30;;;;;;5011661;28;20125;-77
2022/04/04 07:18:02;;;;;;;22.10;13.73;;;8.30;93.20;;;;;;5026934;28;20040;-77
2022/04/04 07:20:28;;;;;;;20.20;14.25;;;8.40;87.40;;;;;;5009811;28;20026;-77
2022/04/04 07:22:54;;;;;;;23.15;13.27;;;8.60;85.10;;;;;;5026191;28;20112;-77
2022/04/04 07:25:22;;;;;;;24.35;13.73;;;8.40;87.40;;;;;;5011130;28;20057;-77
2022/04/04 07:27:48;;;;;;;20.80;13.60;;;8.40;87.70;;;;;;5011465;28;20080;-78
2022/04/04 07:30:17;;;;;;;23.75;13.00;;;8.60;85.30;;;;;;5011411;28;20373;-75
2022/04/04 07:32:51;;;;;;;20.17;13.07;;;8.50;85.90;;;;;;5011181;28;20022;-77
2022/04/04 07:35:38;;;;;;;24.63;13.90;;;8.50;82.10;;;;;;5024803;28;20025;-76
2022/04/04 07:38:04;;;;;;;25.23;13.93;;;8.30;83.90;;;;;;4984963;28;20045;-74
2022/04/04 07:40:40;;;;;;;22.08;13.25;;;8.60;89.60;;;;;;5011255;28;20036;-75
2022/04/04 07:43:10;;;;;;;28.35;16.67;;;9.00;88.10;;;;;;5009888;28;20038;-76
2022/04/04 07:45:36;;;;;;;22.75;14.48;;;9.20;87.50;;;;;;5011067;28;20028;-75
2022/04/04 07:48:05;;;;;;;20.30;10.90;;;9.30;82.60;;;;;;5011124;28;20057;-77
2022/04/04 07:50:33;;;;;;;25.30;14.02;;;9.60;82.80;;;;;;5011681;28;20117;-76
2022/04/04 07:52:59;;;;;;;24.23;14.48;;;9.70;80.00;;;;;;4993402;28;20037;-76
2022/04/04 07:55:25;;;;;;;26.02;13.63;;;9.80;76.00;;;;;;4992918;28;20107;-76
2022/04/04 07:57:51;;;;;;;25.00;15.45;;;9.70;73.70;;;;;;4994117;28;20111;-76
2022/04/04 08:00:21;;;;;;;24.90;14.25;;;9.90;77.70;;;;;;5011450;28;20487;-74
2022/04/04 08:02:47;;;;;;;22.70;13.65;;;10.20;76.40;;;;;;5010644;28;20387;-76
2022/04/04 08:05:14;;;;;;;21.98;12.10;;;10.20;76.40;;;;;;5009579;28;20057;-75
2022/04/04 08:07:43;;;;;;;22.13;11.90;;;10.40;77.20;;;;;;5010654;28;20033;-76
2022/04/04 08:10:11;;;;;;;21.77;11.93;;;10.40;75.40;;;;;;5011205;28;20149;-77
2022/04/04 08:12:37;;;;;;;22.85;13.80;;;10.50;71.80;;;;;;5010557;28;20113;-76
2022/04/04 08:15:03;;;;;;;19.25;12.50;;;10.60;73.50;;;;;;5009221;28;20022;-75
2022/04/04 08:17:30;;;;;;;21.60;12.10;;;10.00;70.20;;;;;;5010498;28;20037;-75
2022/04/04 08:19:59;;;;;;;21.52;11.38;;;9.50;70.20;;;;;;5009562;28;20030;-75
2022/04/04 08:22:28;;;;;;;21.15;12.57;;;9.80;71.50;;;;;;5009434;28;20467;-72
2022/04/04 08:24:54;;;;;;;23.27;13.05;;;10.10;77.40;;;;;;5026123;28;20034;-74
2022/04/04 08:27:22;;;;;;;20.75;12.10;;;9.90;72.40;;;;;;5010519;28;20099;-75
2022/04/04 08:29:48;;;;;;;21.52;11.98;;;9.30;71.40;;;;;;5010098;28;20598;-76
2022/04/04 08:32:14;;;;;;;19.70;12.75;;;9.60;73.40;;;;;;5010818;28;20049;-75
2022/04/04 08:34:43;;;;;;;20.80;11.52;;;10.00;76.80;;;;;;5010470;28;20014;-76
2022/04/04 08:37:09;;;;;;;17.45;9.10;;;10.10;74.00;;;;;;5010370;28;20112;-75
2022/04/04 08:39:35;;;;;;;18.42;8.30;;;9.80;68.00;;;;;;5010162;28;20109;-75
2022/04/04 08:42:05;;;;;;;17.48;8.27;;;9.80;71.30;;;;;;5010521;28;20037;-76
2022/04/04 08:44:36;;;;;;;16.23;9.48;;;9.80;69.00;;;;;;5009141;28;20029;-75
2022/04/04 08:47:03;;;;;;;20.73;11.02;;;10.20;73.60;;;;;;5009309;28;20053;-76
2022/04/04 08:49:29;;;;;;;20.90;9.95;;;10.60;76.00;;;;;;5010561;28;20030;-75
2022/04/04 08:52:01;;;;;;;16.60;9.23;;;10.70;73.10;;;;;;5010863;28;20427;-75
2022/04/04 08:54:27;;;;;;;15.20;8.82;;;11.00;69.90;;;;;;5009289;28;20022;-77
2022/04/04 08:56:52;;;;;;;16.92;8.88;;;10.90;65.10;;;;;;5010064;28;20034;-76
2022/04/04 08:59:19;;;;;;;14.25;8.70;;;10.80;66.40;;;;;;5010186;28;20049;-77
2022/04/04 09:01:45;;;;;;;16.13;8.65;;;10.60;68.40;;;;;;5009150;28;20105;-76
2022/04/04 09:04:12;;;;;;;14.30;8.52;;;10.80;67.10;;;;;;5009294;28;20030;-75
2022/04/04 09:06:56;;;;;;;18.13;9.40;;;10.80;68.30;;;;;;5010688;28;20032;-76
2022/04/04 09:09:38;;;;;;;13.75;9.52;;;10.90;66.80;;;;;;4994088;28;20041;-77
2022/04/04 09:12:16;;;;;;;17.73;9.00;;;10.70;63.80;;;;;;5003216;28;20444;-72
2022/04/04 09:14:48;;;;;;;14.70;8.65;;;10.80;63.70;;;;;;5013888;28;20056;-76
2022/04/04 09:17:16;;;;;;;15.13;8.40;;;10.90;63.90;;;;;;5013253;28;20041;-75
2022/04/04 09:19:51;;;;;;;13.88;7.50;;;10.70;63.40;;;;;;5013796;28;20396;-76
2022/04/04 09:22:19;;;;;;;14.63;8.40;;;10.80;65.50;;;;;;5011530;28;20435;-76
2022/04/04 09:24:50;;;;;;;15.95;8.27;;;10.20;64.60;;;;;;5028469;28;20036;-77
2022/04/04 09:27:27;;;;;;;14.68;7.78;;;10.20;62.50;;;;;;5013194;28;20056;-74
2022/04/04 09:30:04;;;;;;;15.00;8.18;;;10.20;60.90;;;;;;5013095;28;20029;-77
2022/04/04 09:32:40;;;;;;;13.07;7.63;;;10.10;60.80;;;;;;5013450;28;20038;-74
2022/04/04 09:35:36;;;;;;;12.95;6.63;;;10.10;59.80;;;;;;5011582;28;20057;-77
2022/04/04 09:38:16;;;;;;;13.75;6.93;;;10.00;59.60;;;;;;5033059;28;20036;-76
2022/04/04 09:40:43;;;;;;;10.90;6.65;;;10.30;62.30;;;;;;5012370;28;20030;-75
2022/04/04 09:43:09;;;;;;;15.45;8.85;;;10.50;61.30;;;;;;5028329;28;20030;-76
2022/04/04 09:45:34;;;;;;;11.95;7.30;;;10.90;64.20;;;;;;5012919;28;20507;-77
2022/04/04 09:48:04;;;;;;;15.60;8.35;;;11.00;62.10;;;;;;5012594;28;20061;-76
2022/04/04 09:50:45;;;;;;;13.15;7.85;;;11.20;63.00;;;;;;5012927;28;20037;-77
2022/04/04 09:53:27;;;;;;;14.73;8.48;;;11.20;61.00;;;;;;5011819;28;20048;-73
2022/04/04 09:56:00;;;;;;;13.27;7.65;;;11.00;61.00;;;;;;5027606;28;20041;-76
2022/04/04 09:58:27;;;;;;;11.55;7.50;;;10.20;59.10;;;;;;5019432;28;20032;-76
2022/04/04 10:00:55;;;;;;;14.20;7.45;;;10.40;61.10;;;;;;5027985;28;20037;-71
2022/04/04 10:03:23;;;;;;;13.20;7.35;;;10.30;62.60;;;;;;5012133;28;20460;-76
2022/04/04 10:06:00;;;;;;;11.73;6.40;;;10.50;61.80;;;;;;5028375;28;20032;-76
2022/04/04 10:08:27;;;;;;;10.95;7.47;;;10.50;60.60;;;;;;5008372;28;20061;-69
2022/04/04 10:11:00;;;;;;;12.52;7.70;;;10.50;62.50;;;;;;4994984;28;20031;-77
2022/04/04 10:13:26;;;;;;;;;;;10.70;62.00;;;;;;5013342;28;20037;-76
2022/04/04 10:16:08;;;;;;;11.70;6.78;;;10.40;61.80;;;;;;5012165;28;19921;-75
2022/04/04 10:18:37;;;;;;;10.90;7.03;;;10.60;60.20;;;;;;4991933;28;20061;-68
2022/04/04 10:21:03;;;;;;;14.95;7.82;;;10.60;60.40;;;;;;4993384;28;20027;-69
2022/04/04 10:23:30;;;;;;;14.55;7.57;;;10.70;60.00;;;;;;4992894;28;20030;-73
2022/04/04 10:26:00;;;;;;;10.43;7.10;;;10.70;61.30;;;;;;4993202;28;20031;-74
2022/04/04 10:28:32;;;;;;;16.70;7.85;;;10.90;60.30;;;;;;4991614;28;20053;-76
2022/04/04 10:31:19;;;;;;;11.47;7.67;;;10.60;58.90;;;;;;4995986;28;20026;-73
2022/04/04 10:33:52;;;;;;;14.32;8.65;;;10.70;61.10;;;;;;4991072;28;20276;-76
2022/04/04 10:36:23;;;;;;;13.82;7.28;;;10.70;63.00;;;;;;4994610;28;20040;-75
2022/04/04 10:38:54;;;;;;;14.13;7.93;;;10.50;61.00;;;;;;4992740;28;20034;-74
2022/04/04 10:41:22;;;;;;;13.57;8.10;;;10.60;61.10;;;;;;5008278;28;20030;-75
2022/04/04 10:43:50;;;;;;;13.93;8.00;;;10.60;61.40;;;;;;5010610;28;20088;-75
2022/04/04 10:46:24;;;;;;;16.67;8.95;;;10.80;63.20;;;;;;5011375;28;20287;-74
2022/04/04 10:48:59;;;;;;;17.13;9.40;;;10.90;63.30;;;;;;5011971;28;20048;-74
2022/04/04 10:51:31;;;;;;;16.42;8.07;;;10.90;63.60;;;;;;4994774;28;20048;-72
2022/04/04 10:54:07;;;;;;;15.52;8.73;;;11.00;63.80;;;;;;5012157;28;20510;-72
2022/04/04 10:56:45;;;;;;;15.02;8.10;;;11.20;60.50;;;;;;4999506;28;20034;-73
2022/04/04 10:59:20;;;;;;;17.40;8.43;;;11.30;64.20;;;;;;4990862;28;20022;-75
2022/04/04 11:01:47;;;;;;;13.55;7.63;;;11.00;60.60;;;;;;4996559;28;20157;-75
2022/04/04 11:04:37;;;;;;;13.10;6.50;;;11.20;61.70;;;;;;4997402;28;20018;-74
2022/04/04 11:10:06;;;;;;;11.98;6.35;;;11.30;58.50;;;;;;5010812;28;20030;-74
2022/04/04 11:13:15;;;;;;;11.30;6.35;;;11.50;62.00;;;;;;5008119;28;20536;-75
2022/04/04 11:15:51;;;;;;;14.05;6.80;;;11.60;58.30;;;;;;5022621;28;20184;-72
2022/04/04 11:18:21;;;;;;;11.95;6.00;;;11.20;58.60;;;;;;5012940;28;20030;-76
2022/04/04 11:20:59;;;;;;;12.83;6.03;;;11.40;60.30;;;;;;4998311;28;20059;-76
2022/04/04 11:23:34;;;;;;;11.15;6.32;;;11.40;58.80;;;;;;5029601;28;20056;-76
2022/04/04 11:26:18;;;;;;;13.88;6.38;;;11.80;62.60;;;;;;4995867;28;20068;-74
2022/04/04 11:28:46;;;;;;;7.65;4.70;;;11.70;60.50;;;;;;5029078;28;20475;-68
2022/04/04 11:31:15;;;;;;;11.88;5.15;;;11.00;55.00;;;;;;5026906;28;20033;-74
2022/04/04 11:33:54;;;;;;;9.43;4.97;;;11.30;55.70;;;;;;4994447;28;20502;-74
2022/04/04 11:36:31;;;;;;;9.90;5.35;;;11.10;56.30;;;;;;5007837;28;20052;-71
2022/04/04 11:39:07;;;;;;;7.30;5.18;;;10.80;57.60;;;;;;5011478;28;20096;-73
2022/04/04 11:41:39;;;;;;;10.25;5.35;;;11.00;59.60;;;;;;5011524;28;20145;-69
2022/04/04 11:44:05;;;;;;;9.30;5.20;;;11.20;60.00;;;;;;5026828;28;20099;-74
2022/04/04 11:46:32;;;;;;;9.65;4.38;;;11.60;61.90;;;;;;5028019;28;20573;-74
2022/04/04 11:48:59;;;;;;;8.02;5.00;;;11.70;59.10;;;;;;5027690;28;20052;-75
2022/04/04 11:51:31;;;;;;;7.95;4.97;;;11.50;58.10;;;;;;5026848;28;20029;-73
2022/04/04 11:54:03;;;;;;;8.60;4.40;;;11.70;58.90;;;;;;5011827;28;20115;-75
2022/04/04 11:56:29;;;;;;;9.70;4.78;;;11.70;57.50;;;;;;5010784;28;20038;-75
2022/04/04 11:58:56;;;;;;;9.50;5.03;;;12.00;59.80;;;;;;5011275;28;20056;-75
2022/04/04 12:01:31;;;;;;;8.13;4.38;;;12.00;55.40;;;;;;5010229;28;20034;-75
2022/04/04 12:03:58;;;;;;;6.97;4.07;;;11.90;55.60;;;;;;5010692;28;20026;-75
2022/04/04 12:06:37;;;;;;;8.88;4.97;;;11.70;57.90;;;;;;5012089;28;20022;-74
2022/04/04 12:09:12;;;;;;;10.00;4.82;;;11.40;57.00;;;;;;5026870;28;20033;-75
2022/04/04 12:11:49;;;;;;;8.63;4.57;;;11.30;57.00;;;;;;5016698;28;20030;-76
2022/04/04 12:14:21;;;;;;;10.95;4.68;;;10.90;56.30;;;;;;5012289;28;20030;-75
2022/04/04 12:16:53;;;;;;;12.35;5.97;;;10.90;57.00;;;;;;5026042;28;20492;-75
2022/04/04 12:19:19;;;;;;;9.07;4.73;;;10.70;60.20;;;;;;5011063;28;20483;-76
2022/04/04 12:21:47;;;;;;;10.43;5.40;;;10.80;57.90;;;;;;5011999;28;20102;-76
2022/04/04 12:27:14;;;;;;;13.10;7.30;;;10.70;56.80;;;;;;5011949;28;20034;-76
2022/04/04 12:29:45;;;;;;;9.10;4.72;;;11.00;57.30;;;;;;5026605;28;20065;-74
2022/04/04 12:32:41;;;;;;;8.40;4.90;;;10.90;59.20;;;;;;5011335;28;20034;-76
2022/04/04 12:35:08;;;;;;;10.15;4.75;;;10.70;57.50;;;;;;5010213;28;20045;-75
2022/04/04 12:37:52;;;;;;;8.20;4.78;;;10.90;59.10;;;;;;5010085;28;20161;-78
2022/04/04 12:40:18;;;;;;;10.98;4.90;;;10.90;57.80;;;;;;5010137;28;20511;-75
2022/04/04 12:42:45;;;;;;;8.63;5.03;;;10.80;58.10;;;;;;5014996;28;20040;-73
2022/04/04 12:45:16;;;;;;;12.13;6.43;;;10.80;58.30;;;;;;5014493;28;20036;-74
2022/04/04 12:47:59;;;;;;;8.15;4.35;;;11.10;60.00;;;;;;5014644;28;20054;-74
2022/04/04 12:50:37;;;;;;;;;;;11.00;57.20;;;;;;5015501;28;20037;-75
2022/04/04 12:53:22;;;;;;;10.45;4.97;;;10.90;57.80;;;;;;5015285;28;19913;-75
2022/04/04 12:56:07;;;;;;;10.48;5.03;;;11.00;58.50;;;;;;5014833;28;20083;-72